sensor_id;sensor_type;location;lat;lon;timestamp;P1;durP1;ratioP1;P2;durP2;ratioP2
51810;SDS011;52468;40.116;18.296;2022-11-15T00:00:19;54.17;;;25.37;;
51810;SDS011;52468;40.116;18.296;2022-11-15T00:03:06;53.27;;;26.67;;
51810;SDS011;52468;40.116;18.296;2022-11-15T00:05:52;51.40;;;24.73;;
51810;SDS011;52468;40.116;18.296;2022-11-15T00:08:39;50.70;;;25.33;;
51810;SDS011;52468;40.116;18.296;2022-11-15T00:11:25;47.97;;;24.77;;
51810;SDS011;52468;40.116;18.296;2022-11-15T00:14:12;46.13;;;25.97;;
51810;SDS011;52468;40.116;18.296;2022-11-15T00:16:59;51.13;;;28.10;;
51810;SDS011;52468;40.116;18.296;2022-11-15T00:19:45;57.07;;;26.70;;
51810;SDS011;52468;40.116;18.296;2022-11-15T00:22:32;50.83;;;24.50;;
51810;SDS011;52468;40.116;18.296;2022-11-15T00:25:19;52.63;;;26.13;;
51810;SDS011;52468;40.116;18.296;2022-11-15T00:28:06;47.77;;;25.10;;
51810;SDS011;52468;40.116;18.296;2022-11-15T00:30:52;53.03;;;24.63;;
51810;SDS011;52468;40.116;18.296;2022-11-15T00:33:39;50.63;;;24.67;;
51810;SDS011;52468;40.116;18.296;2022-11-15T00:36:25;55.63;;;25.93;;
51810;SDS011;52468;40.116;18.296;2022-11-15T00:39:11;51.77;;;23.17;;
51810;SDS011;52468;40.116;18.296;2022-11-15T00:41:58;53.07;;;27.40;;
51810;SDS011;52468;40.116;18.296;2022-11-15T00:44:44;57.37;;;26.43;;
51810;SDS011;52468;40.116;18.296;2022-11-15T00:47:31;46.47;;;23.60;;
51810;SDS011;52468;40.116;18.296;2022-11-15T00:50:17;54.87;;;24.37;;
51810;SDS011;52468;40.116;18.296;2022-11-15T00:53:04;45.93;;;23.13;;
51810;SDS011;52468;40.116;18.296;2022-11-15T00:55:51;45.23;;;24.17;;
51810;SDS011;52468;40.116;18.296;2022-11-15T00:58:37;49.17;;;25.07;;
51810;SDS011;52468;40.116;18.296;2022-11-15T01:01:23;50.20;;;25.67;;
51810;SDS011;52468;40.116;18.296;2022-11-15T01:04:10;46.03;;;24.43;;
51810;SDS011;52468;40.116;18.296;2022-11-15T01:06:56;50.77;;;26.27;;
51810;SDS011;52468;40.116;18.296;2022-11-15T01:09:42;57.53;;;26.43;;
51810;SDS011;52468;40.116;18.296;2022-11-15T01:12:29;51.40;;;25.53;;
51810;SDS011;52468;40.116;18.296;2022-11-15T01:15:15;53.60;;;26.30;;
51810;SDS011;52468;40.116;18.296;2022-11-15T01:18:01;49.43;;;23.90;;
51810;SDS011;52468;40.116;18.296;2022-11-15T01:20:47;45.33;;;22.57;;
51810;SDS011;52468;40.116;18.296;2022-11-15T01:23:34;37.97;;;22.57;;
51810;SDS011;52468;40.116;18.296;2022-11-15T01:26:21;44.80;;;21.93;;
51810;SDS011;52468;40.116;18.296;2022-11-15T01:29:08;39.00;;;21.90;;
51810;SDS011;52468;40.116;18.296;2022-11-15T01:31:54;41.57;;;21.50;;
51810;SDS011;52468;40.116;18.296;2022-11-15T01:34:40;38.80;;;21.13;;
51810;SDS011;52468;40.116;18.296;2022-11-15T01:37:27;40.93;;;20.13;;
51810;SDS011;52468;40.116;18.296;2022-11-15T01:40:13;42.80;;;18.60;;
51810;SDS011;52468;40.116;18.296;2022-11-15T01:43:17;34.57;;;17.87;;
51810;SDS011;52468;40.116;18.296;2022-11-15T01:49:21;32.55;;;16.05;;
51810;SDS011;52468;40.116;18.296;2022-11-15T01:52:10;30.83;;;17.70;;
51810;SDS011;52468;40.116;18.296;2022-11-15T01:55:09;34.43;;;17.07;;
51810;SDS011;52468;40.116;18.296;2022-11-15T01:58:02;33.53;;;17.00;;
51810;SDS011;52468;40.116;18.296;2022-11-15T02:00:49;32.10;;;16.60;;
51810;SDS011;52468;40.116;18.296;2022-11-15T02:03:45;32.17;;;15.27;;
51810;SDS011;52468;40.116;18.296;2022-11-15T02:06:37;25.20;;;12.93;;
51810;SDS011;52468;40.116;18.296;2022-11-15T02:09:25;25.37;;;13.70;;
51810;SDS011;52468;40.116;18.296;2022-11-15T02:12:12;27.60;;;13.70;;
51810;SDS011;52468;40.116;18.296;2022-11-15T02:15:02;33.20;;;16.83;;
51810;SDS011;52468;40.116;18.296;2022-11-15T02:42:26;28.60;;;15.10;;
51810;SDS011;52468;40.116;18.296;2022-11-15T02:45:36;37.47;;;16.20;;
51810;SDS011;52468;40.116;18.296;2022-11-15T02:48:27;31.53;;;14.23;;
51810;SDS011;52468;40.116;18.296;2022-11-15T02:51:14;30.47;;;14.60;;
51810;SDS011;52468;40.116;18.296;2022-11-15T02:54:02;24.30;;;15.17;;
51810;SDS011;52468;40.116;18.296;2022-11-15T02:56:49;26.67;;;14.37;;
51810;SDS011;52468;40.116;18.296;2022-11-15T03:03:12;28.50;;;13.70;;
51810;SDS011;52468;40.116;18.296;2022-11-15T03:09:35;28.83;;;15.93;;
51810;SDS011;52468;40.116;18.296;2022-11-15T03:12:41;36.87;;;14.93;;
51810;SDS011;52468;40.116;18.296;2022-11-15T03:15:38;34.03;;;15.60;;
51810;SDS011;52468;40.116;18.296;2022-11-15T03:18:59;32.65;;;15.68;;
51810;SDS011;52468;40.116;18.296;2022-11-15T03:22:07;32.70;;;14.83;;
51810;SDS011;52468;40.116;18.296;2022-11-15T03:25:00;28.37;;;13.23;;
51810;SDS011;52468;40.116;18.296;2022-11-15T03:27:51;31.20;;;14.23;;
51810;SDS011;52468;40.116;18.296;2022-11-15T03:30:41;29.13;;;14.57;;
51810;SDS011;52468;40.116;18.296;2022-11-15T03:33:29;27.53;;;15.13;;
51810;SDS011;52468;40.116;18.296;2022-11-15T03:36:16;34.37;;;15.27;;
51810;SDS011;52468;40.116;18.296;2022-11-15T03:39:05;26.40;;;14.67;;
51810;SDS011;52468;40.116;18.296;2022-11-15T03:44:55;32.43;;;15.70;;
51810;SDS011;52468;40.116;18.296;2022-11-15T03:47:54;25.60;;;14.50;;
51810;SDS011;52468;40.116;18.296;2022-11-15T03:50:47;30.50;;;14.63;;
51810;SDS011;52468;40.116;18.296;2022-11-15T03:53:34;27.93;;;13.47;;
51810;SDS011;52468;40.116;18.296;2022-11-15T03:56:20;31.13;;;14.53;;
51810;SDS011;52468;40.116;18.296;2022-11-15T03:59:07;33.30;;;13.07;;
51810;SDS011;52468;40.116;18.296;2022-11-15T04:01:53;32.70;;;13.70;;
51810;SDS011;52468;40.116;18.296;2022-11-15T04:04:39;29.53;;;14.90;;
51810;SDS011;52468;40.116;18.296;2022-11-15T04:07:26;31.13;;;15.33;;
51810;SDS011;52468;40.116;18.296;2022-11-15T04:10:13;29.07;;;14.40;;
51810;SDS011;52468;40.116;18.296;2022-11-15T04:13:01;26.33;;;14.83;;
51810;SDS011;52468;40.116;18.296;2022-11-15T04:15:48;33.33;;;15.50;;
51810;SDS011;52468;40.116;18.296;2022-11-15T04:18:34;25.57;;;14.13;;
51810;SDS011;52468;40.116;18.296;2022-11-15T04:21:21;32.23;;;15.10;;
51810;SDS011;52468;40.116;18.296;2022-11-15T04:24:26;30.63;;;15.10;;
51810;SDS011;52468;40.116;18.296;2022-11-15T04:27:13;36.00;;;16.07;;
51810;SDS011;52468;40.116;18.296;2022-11-15T04:29:59;38.33;;;17.67;;
51810;SDS011;52468;40.116;18.296;2022-11-15T04:32:45;34.60;;;15.50;;
51810;SDS011;52468;40.116;18.296;2022-11-15T04:35:32;33.80;;;17.20;;
51810;SDS011;52468;40.116;18.296;2022-11-15T04:38:18;32.40;;;15.80;;
51810;SDS011;52468;40.116;18.296;2022-11-15T04:41:05;36.37;;;17.27;;
51810;SDS011;52468;40.116;18.296;2022-11-15T04:43:51;37.63;;;18.83;;
51810;SDS011;52468;40.116;18.296;2022-11-15T04:46:37;32.77;;;18.27;;
51810;SDS011;52468;40.116;18.296;2022-11-15T04:49:24;42.93;;;19.67;;
51810;SDS011;52468;40.116;18.296;2022-11-15T04:52:10;40.57;;;18.03;;
51810;SDS011;52468;40.116;18.296;2022-11-15T04:54:57;36.27;;;17.87;;
51810;SDS011;52468;40.116;18.296;2022-11-15T04:57:44;40.47;;;19.80;;
51810;SDS011;52468;40.116;18.296;2022-11-15T05:00:31;46.37;;;18.73;;
51810;SDS011;52468;40.116;18.296;2022-11-15T05:03:17;47.43;;;20.23;;
51810;SDS011;52468;40.116;18.296;2022-11-15T05:06:22;48.53;;;20.30;;
51810;SDS011;52468;40.116;18.296;2022-11-15T05:09:09;47.67;;;21.77;;
51810;SDS011;52468;40.116;18.296;2022-11-15T05:11:56;49.93;;;21.93;;
51810;SDS011;52468;40.116;18.296;2022-11-15T05:14:42;53.73;;;23.77;;
51810;SDS011;52468;40.116;18.296;2022-11-15T05:17:29;61.23;;;22.97;;
51810;SDS011;52468;40.116;18.296;2022-11-15T05:20:16;59.67;;;22.03;;
51810;SDS011;52468;40.116;18.296;2022-11-15T05:23:03;55.73;;;23.90;;
51810;SDS011;52468;40.116;18.296;2022-11-15T05:25:49;58.37;;;25.00;;
51810;SDS011;52468;40.116;18.296;2022-11-15T05:28:35;58.90;;;25.13;;
51810;SDS011;52468;40.116;18.296;2022-11-15T05:31:22;64.03;;;26.40;;
51810;SDS011;52468;40.116;18.296;2022-11-15T05:34:09;65.83;;;28.30;;
51810;SDS011;52468;40.116;18.296;2022-11-15T05:36:56;57.53;;;25.37;;
51810;SDS011;52468;40.116;18.296;2022-11-15T05:39:42;69.30;;;26.13;;
51810;SDS011;52468;40.116;18.296;2022-11-15T05:42:28;64.80;;;26.80;;
51810;SDS011;52468;40.116;18.296;2022-11-15T05:45:16;68.10;;;27.97;;
51810;SDS011;52468;40.116;18.296;2022-11-15T05:48:04;65.10;;;28.83;;
51810;SDS011;52468;40.116;18.296;2022-11-15T05:50:54;75.00;;;28.87;;
51810;SDS011;52468;40.116;18.296;2022-11-15T05:53:42;64.27;;;30.23;;
51810;SDS011;52468;40.116;18.296;2022-11-15T05:56:30;75.27;;;32.67;;
51810;SDS011;52468;40.116;18.296;2022-11-15T05:59:16;69.93;;;30.37;;
51810;SDS011;52468;40.116;18.296;2022-11-15T06:02:03;90.00;;;31.53;;
51810;SDS011;52468;40.116;18.296;2022-11-15T06:04:50;88.07;;;32.23;;
51810;SDS011;52468;40.116;18.296;2022-11-15T06:07:36;96.07;;;33.30;;
51810;SDS011;52468;40.116;18.296;2022-11-15T06:10:22;83.00;;;33.53;;
51810;SDS011;52468;40.116;18.296;2022-11-15T06:13:09;92.07;;;34.77;;
51810;SDS011;52468;40.116;18.296;2022-11-15T06:15:55;101.10;;;36.83;;
51810;SDS011;52468;40.116;18.296;2022-11-15T06:18:42;99.10;;;40.30;;
51810;SDS011;52468;40.116;18.296;2022-11-15T06:21:29;109.33;;;37.33;;
51810;SDS011;52468;40.116;18.296;2022-11-15T06:24:15;116.30;;;42.43;;
51810;SDS011;52468;40.116;18.296;2022-11-15T06:27:01;109.03;;;39.27;;
51810;SDS011;52468;40.116;18.296;2022-11-15T06:29:48;116.23;;;41.67;;
51810;SDS011;52468;40.116;18.296;2022-11-15T06:32:35;103.13;;;39.63;;
51810;SDS011;52468;40.116;18.296;2022-11-15T06:35:21;112.90;;;41.57;;
51810;SDS011;52468;40.116;18.296;2022-11-15T06:38:08;114.93;;;44.17;;
51810;SDS011;52468;40.116;18.296;2022-11-15T06:41:00;114.63;;;44.10;;
51810;SDS011;52468;40.116;18.296;2022-11-15T06:43:48;119.10;;;41.40;;
51810;SDS011;52468;40.116;18.296;2022-11-15T06:46:36;115.67;;;46.83;;
51810;SDS011;52468;40.116;18.296;2022-11-15T06:49:22;126.17;;;45.83;;
51810;SDS011;52468;40.116;18.296;2022-11-15T06:52:09;121.83;;;45.07;;
51810;SDS011;52468;40.116;18.296;2022-11-15T06:54:55;125.20;;;43.87;;
51810;SDS011;52468;40.116;18.296;2022-11-15T06:57:51;113.70;;;45.40;;
51810;SDS011;52468;40.116;18.296;2022-11-15T07:00:38;118.97;;;46.20;;
51810;SDS011;52468;40.116;18.296;2022-11-15T07:03:25;108.73;;;43.07;;
51810;SDS011;52468;40.116;18.296;2022-11-15T07:06:11;110.10;;;45.10;;
51810;SDS011;52468;40.116;18.296;2022-11-15T07:08:58;114.17;;;45.10;;
51810;SDS011;52468;40.116;18.296;2022-11-15T07:11:44;116.80;;;44.87;;
51810;SDS011;52468;40.116;18.296;2022-11-15T07:14:30;99.97;;;41.87;;
51810;SDS011;52468;40.116;18.296;2022-11-15T07:17:17;115.60;;;43.87;;
51810;SDS011;52468;40.116;18.296;2022-11-15T07:20:03;92.10;;;43.03;;
51810;SDS011;52468;40.116;18.296;2022-11-15T07:22:50;102.67;;;43.13;;
51810;SDS011;52468;40.116;18.296;2022-11-15T07:25:36;95.13;;;41.50;;
51810;SDS011;52468;40.116;18.296;2022-11-15T07:28:23;103.43;;;43.00;;
51810;SDS011;52468;40.116;18.296;2022-11-15T07:31:09;94.90;;;42.40;;
51810;SDS011;52468;40.116;18.296;2022-11-15T07:33:56;93.70;;;42.50;;
51810;SDS011;52468;40.116;18.296;2022-11-15T07:36:42;107.73;;;46.73;;
51810;SDS011;52468;40.116;18.296;2022-11-15T07:39:29;90.20;;;40.57;;
51810;SDS011;52468;40.116;18.296;2022-11-15T07:42:15;95.57;;;39.57;;
51810;SDS011;52468;40.116;18.296;2022-11-15T07:45:20;88.20;;;39.63;;
51810;SDS011;52468;40.116;18.296;2022-11-15T07:48:07;89.40;;;38.60;;
51810;SDS011;52468;40.116;18.296;2022-11-15T07:50:56;70.77;;;35.63;;
51810;SDS011;52468;40.116;18.296;2022-11-15T07:53:43;70.03;;;35.60;;
51810;SDS011;52468;40.116;18.296;2022-11-15T07:56:29;70.43;;;34.30;;
51810;SDS011;52468;40.116;18.296;2022-11-15T07:59:16;73.93;;;34.50;;
51810;SDS011;52468;40.116;18.296;2022-11-15T08:02:02;62.47;;;30.50;;
51810;SDS011;52468;40.116;18.296;2022-11-15T08:04:49;55.23;;;28.47;;
51810;SDS011;52468;40.116;18.296;2022-11-15T08:07:35;48.27;;;26.03;;
51810;SDS011;52468;40.116;18.296;2022-11-15T08:10:24;49.67;;;26.07;;
51810;SDS011;52468;40.116;18.296;2022-11-15T08:13:12;40.80;;;25.10;;
51810;SDS011;52468;40.116;18.296;2022-11-15T08:15:59;38.33;;;21.13;;
51810;SDS011;52468;40.116;18.296;2022-11-15T08:18:47;29.67;;;18.37;;
51810;SDS011;52468;40.116;18.296;2022-11-15T08:21:33;25.37;;;15.77;;
51810;SDS011;52468;40.116;18.296;2022-11-15T08:24:20;23.30;;;15.67;;
51810;SDS011;52468;40.116;18.296;2022-11-15T08:27:07;24.90;;;14.83;;
51810;SDS011;52468;40.116;18.296;2022-11-15T08:30:00;21.63;;;13.40;;
51810;SDS011;52468;40.116;18.296;2022-11-15T08:32:47;19.57;;;13.83;;
51810;SDS011;52468;40.116;18.296;2022-11-15T08:35:35;19.03;;;12.97;;
51810;SDS011;52468;40.116;18.296;2022-11-15T08:38:21;19.93;;;11.43;;
51810;SDS011;52468;40.116;18.296;2022-11-15T08:41:13;15.67;;;10.87;;
51810;SDS011;52468;40.116;18.296;2022-11-15T08:44:06;20.33;;;11.73;;
51810;SDS011;52468;40.116;18.296;2022-11-15T08:46:52;14.60;;;9.87;;
51810;SDS011;52468;40.116;18.296;2022-11-15T08:49:38;10.80;;;9.00;;
51810;SDS011;52468;40.116;18.296;2022-11-15T08:52:24;13.23;;;9.43;;
51810;SDS011;52468;40.116;18.296;2022-11-15T08:55:11;14.17;;;8.67;;
51810;SDS011;52468;40.116;18.296;2022-11-15T08:57:58;13.90;;;9.33;;
51810;SDS011;52468;40.116;18.296;2022-11-15T09:00:44;17.93;;;9.67;;
51810;SDS011;52468;40.116;18.296;2022-11-15T09:03:31;11.17;;;9.03;;
51810;SDS011;52468;40.116;18.296;2022-11-15T09:06:17;13.23;;;7.47;;
51810;SDS011;52468;40.116;18.296;2022-11-15T09:09:04;11.10;;;7.30;;
51810;SDS011;52468;40.116;18.296;2022-11-15T09:11:51;9.83;;;6.73;;
51810;SDS011;52468;40.116;18.296;2022-11-15T09:14:38;8.43;;;5.87;;
51810;SDS011;52468;40.116;18.296;2022-11-15T09:17:25;11.57;;;7.73;;
51810;SDS011;52468;40.116;18.296;2022-11-15T09:20:11;12.83;;;7.63;;
51810;SDS011;52468;40.116;18.296;2022-11-15T09:22:59;8.13;;;6.37;;
51810;SDS011;52468;40.116;18.296;2022-11-15T09:25:46;8.67;;;5.03;;
51810;SDS011;52468;40.116;18.296;2022-11-15T09:28:33;6.90;;;4.13;;
51810;SDS011;52468;40.116;18.296;2022-11-15T09:31:20;8.03;;;5.17;;
51810;SDS011;52468;40.116;18.296;2022-11-15T09:34:07;9.70;;;5.63;;
51810;SDS011;52468;40.116;18.296;2022-11-15T09:36:53;9.23;;;5.67;;
51810;SDS011;52468;40.116;18.296;2022-11-15T09:39:39;8.00;;;5.13;;
51810;SDS011;52468;40.116;18.296;2022-11-15T09:49:04;7.53;;;5.40;;
51810;SDS011;52468;40.116;18.296;2022-11-15T09:51:51;6.37;;;4.37;;
51810;SDS011;52468;40.116;18.296;2022-11-15T10:02:52;7.47;;;5.60;;
51810;SDS011;52468;40.116;18.296;2022-11-15T10:05:26;8.55;;;5.00;;
51810;SDS011;52468;40.116;18.296;2022-11-15T10:10:58;5.03;;;3.83;;
51810;SDS011;52468;40.116;18.296;2022-11-15T10:13:49;6.67;;;4.57;;
51810;SDS011;52468;40.116;18.296;2022-11-15T10:24:34;6.23;;;4.07;;
51810;SDS011;52468;40.116;18.296;2022-11-15T10:27:13;6.47;;;4.10;;
51810;SDS011;52468;40.116;18.296;2022-11-15T10:29:45;8.63;;;4.73;;
51810;SDS011;52468;40.116;18.296;2022-11-15T10:32:18;6.07;;;3.63;;
51810;SDS011;52468;40.116;18.296;2022-11-15T10:34:49;4.60;;;3.57;;
51810;SDS011;52468;40.116;18.296;2022-11-15T10:37:30;5.47;;;3.47;;
51810;SDS011;52468;40.116;18.296;2022-11-15T10:40:06;6.67;;;4.10;;
51810;SDS011;52468;40.116;18.296;2022-11-15T10:43:03;8.10;;;3.63;;
51810;SDS011;52468;40.116;18.296;2022-11-15T10:45:37;7.30;;;4.27;;
51810;SDS011;52468;40.116;18.296;2022-11-15T10:50:43;5.63;;;3.60;;
51810;SDS011;52468;40.116;18.296;2022-11-15T10:53:32;4.47;;;4.07;;
51810;SDS011;52468;40.116;18.296;2022-11-15T10:56:06;6.83;;;3.60;;
51810;SDS011;52468;40.116;18.296;2022-11-15T10:58:39;5.68;;;3.03;;
51810;SDS011;52468;40.116;18.296;2022-11-15T11:01:17;7.50;;;3.83;;
51810;SDS011;52468;40.116;18.296;2022-11-15T11:03:59;5.33;;;3.30;;
51810;SDS011;52468;40.116;18.296;2022-11-15T11:06:30;4.40;;;3.10;;
51810;SDS011;52468;40.116;18.296;2022-11-15T11:11:56;3.83;;;2.87;;
51810;SDS011;52468;40.116;18.296;2022-11-15T11:14:25;3.63;;;3.00;;
51810;SDS011;52468;40.116;18.296;2022-11-15T11:33:48;3.07;;;2.23;;
51810;SDS011;52468;40.116;18.296;2022-11-15T11:36:38;5.10;;;2.00;;
51810;SDS011;52468;40.116;18.296;2022-11-15T11:42:02;3.80;;;2.07;;
51810;SDS011;52468;40.116;18.296;2022-11-15T11:47:24;3.63;;;2.22;;
51810;SDS011;52468;40.116;18.296;2022-11-15T11:50:00;6.90;;;2.53;;
51810;SDS011;52468;40.116;18.296;2022-11-15T11:55:38;3.63;;;1.97;;
51810;SDS011;52468;40.116;18.296;2022-11-15T12:01:11;2.00;;;1.80;;
51810;SDS011;52468;40.116;18.296;2022-11-15T12:03:42;3.07;;;2.77;;
51810;SDS011;52468;40.116;18.296;2022-11-15T12:12:08;3.07;;;2.50;;
51810;SDS011;52468;40.116;18.296;2022-11-15T12:15:01;4.33;;;2.67;;
51810;SDS011;52468;40.116;18.296;2022-11-15T12:17:38;3.20;;;2.53;;
51810;SDS011;52468;40.116;18.296;2022-11-15T12:20:15;4.07;;;2.40;;
51810;SDS011;52468;40.116;18.296;2022-11-15T12:26:09;3.07;;;2.10;;
51810;SDS011;52468;40.116;18.296;2022-11-15T12:28:48;3.23;;;2.57;;
51810;SDS011;52468;40.116;18.296;2022-11-15T12:34:01;2.57;;;1.80;;
51810;SDS011;52468;40.116;18.296;2022-11-15T12:36:40;3.50;;;2.07;;
51810;SDS011;52468;40.116;18.296;2022-11-15T12:39:10;4.10;;;2.00;;
51810;SDS011;52468;40.116;18.296;2022-11-15T12:41:43;4.23;;;2.27;;
51810;SDS011;52468;40.116;18.296;2022-11-15T12:47:04;4.10;;;2.40;;
51810;SDS011;52468;40.116;18.296;2022-11-15T12:52:04;2.40;;;1.90;;
51810;SDS011;52468;40.116;18.296;2022-11-15T13:02:26;2.93;;;2.23;;
51810;SDS011;52468;40.116;18.296;2022-11-15T13:08:00;2.23;;;1.90;;
51810;SDS011;52468;40.116;18.296;2022-11-15T13:10:32;2.57;;;1.57;;
51810;SDS011;52468;40.116;18.296;2022-11-15T13:15:51;2.63;;;1.90;;
51810;SDS011;52468;40.116;18.296;2022-11-15T13:21:23;4.27;;;1.87;;
51810;SDS011;52468;40.116;18.296;2022-11-15T13:24:10;2.63;;;1.90;;
51810;SDS011;52468;40.116;18.296;2022-11-15T13:26:40;4.97;;;1.87;;
51810;SDS011;52468;40.116;18.296;2022-11-15T13:29:14;2.87;;;1.43;;
51810;SDS011;52468;40.116;18.296;2022-11-15T13:31:44;2.47;;;2.07;;
51810;SDS011;52468;40.116;18.296;2022-11-15T13:34:16;2.97;;;1.97;;
51810;SDS011;52468;40.116;18.296;2022-11-15T13:39:47;2.10;;;1.53;;
51810;SDS011;52468;40.116;18.296;2022-11-15T13:42:17;2.00;;;1.63;;
51810;SDS011;52468;40.116;18.296;2022-11-15T13:44:56;2.63;;;1.40;;
51810;SDS011;52468;40.116;18.296;2022-11-15T13:47:30;1.77;;;1.30;;
51810;SDS011;52468;40.116;18.296;2022-11-15T13:49:59;3.37;;;1.33;;
51810;SDS011;52468;40.116;18.296;2022-11-15T13:52:33;1.80;;;1.60;;
51810;SDS011;52468;40.116;18.296;2022-11-15T13:55:05;3.30;;;2.07;;
51810;SDS011;52468;40.116;18.296;2022-11-15T14:00:23;3.40;;;1.70;;
51810;SDS011;52468;40.116;18.296;2022-11-15T14:02:54;2.70;;;1.73;;
51810;SDS011;52468;40.116;18.296;2022-11-15T14:05:23;4.40;;;2.83;;
51810;SDS011;52468;40.116;18.296;2022-11-15T14:07:55;3.80;;;2.63;;
51810;SDS011;52468;40.116;18.296;2022-11-15T14:10:31;3.27;;;2.37;;
51810;SDS011;52468;40.116;18.296;2022-11-15T14:12:59;5.93;;;2.80;;
51810;SDS011;52468;40.116;18.296;2022-11-15T14:15:30;3.93;;;3.07;;
51810;SDS011;52468;40.116;18.296;2022-11-15T14:17:58;6.73;;;4.37;;
51810;SDS011;52468;40.116;18.296;2022-11-15T14:23:46;3.97;;;3.10;;
51810;SDS011;52468;40.116;18.296;2022-11-15T14:25:58;5.13;;;3.43;;
51810;SDS011;52468;40.116;18.296;2022-11-15T14:30:55;5.63;;;3.60;;
51810;SDS011;52468;40.116;18.296;2022-11-15T14:33:34;5.53;;;3.27;;
51810;SDS011;52468;40.116;18.296;2022-11-15T14:36:05;4.50;;;2.80;;
51810;SDS011;52468;40.116;18.296;2022-11-15T14:38:38;5.40;;;2.93;;
51810;SDS011;52468;40.116;18.296;2022-11-15T14:41:09;4.87;;;3.37;;
51810;SDS011;52468;40.116;18.296;2022-11-15T14:43:48;5.17;;;3.83;;
51810;SDS011;52468;40.116;18.296;2022-11-15T14:46:18;8.07;;;4.30;;
51810;SDS011;52468;40.116;18.296;2022-11-15T14:48:46;4.63;;;3.83;;
51810;SDS011;52468;40.116;18.296;2022-11-15T14:51:16;5.47;;;3.40;;
51810;SDS011;52468;40.116;18.296;2022-11-15T14:53:45;6.40;;;3.70;;
51810;SDS011;52468;40.116;18.296;2022-11-15T14:56:13;6.33;;;4.73;;
51810;SDS011;52468;40.116;18.296;2022-11-15T14:58:43;6.03;;;4.20;;
51810;SDS011;52468;40.116;18.296;2022-11-15T15:01:16;6.57;;;4.03;;
51810;SDS011;52468;40.116;18.296;2022-11-15T15:03:45;7.07;;;4.07;;
51810;SDS011;52468;40.116;18.296;2022-11-15T15:06:12;10.70;;;4.60;;
51810;SDS011;52468;40.116;18.296;2022-11-15T15:08:43;5.03;;;4.43;;
51810;SDS011;52468;40.116;18.296;2022-11-15T15:11:14;8.77;;;4.87;;
51810;SDS011;52468;40.116;18.296;2022-11-15T15:13:48;8.77;;;4.37;;
51810;SDS011;52468;40.116;18.296;2022-11-15T15:16:16;15.90;;;5.27;;
51810;SDS011;52468;40.116;18.296;2022-11-15T15:18:44;4.13;;;3.43;;
51810;SDS011;52468;40.116;18.296;2022-11-15T15:21:24;12.57;;;4.70;;
51810;SDS011;52468;40.116;18.296;2022-11-15T15:24:02;5.37;;;4.13;;
51810;SDS011;52468;40.116;18.296;2022-11-15T15:26:30;5.00;;;4.43;;
51810;SDS011;52468;40.116;18.296;2022-11-15T15:29:03;9.55;;;5.40;;
51810;SDS011;52468;40.116;18.296;2022-11-15T15:31:31;7.03;;;5.47;;
51810;SDS011;52468;40.116;18.296;2022-11-15T15:34:00;8.13;;;5.87;;
51810;SDS011;52468;40.116;18.296;2022-11-15T15:36:28;7.73;;;5.23;;
51810;SDS011;52468;40.116;18.296;2022-11-15T15:38:56;8.27;;;5.37;;
51810;SDS011;52468;40.116;18.296;2022-11-15T15:41:24;8.37;;;5.50;;
51810;SDS011;52468;40.116;18.296;2022-11-15T15:43:52;7.97;;;6.23;;
51810;SDS011;52468;40.116;18.296;2022-11-15T15:46:20;9.27;;;6.87;;
51810;SDS011;52468;40.116;18.296;2022-11-15T15:48:48;11.50;;;6.83;;
51810;SDS011;52468;40.116;18.296;2022-11-15T15:51:16;12.80;;;8.53;;
51810;SDS011;52468;40.116;18.296;2022-11-15T15:53:46;10.57;;;6.70;;
51810;SDS011;52468;40.116;18.296;2022-11-15T15:56:15;9.63;;;7.37;;
51810;SDS011;52468;40.116;18.296;2022-11-15T15:58:42;14.23;;;6.53;;
51810;SDS011;52468;40.116;18.296;2022-11-15T16:01:10;12.77;;;8.07;;
51810;SDS011;52468;40.116;18.296;2022-11-15T16:03:38;16.00;;;9.37;;
51810;SDS011;52468;40.116;18.296;2022-11-15T16:06:22;12.27;;;8.27;;
51810;SDS011;52468;40.116;18.296;2022-11-15T16:09:03;16.60;;;9.00;;
51810;SDS011;52468;40.116;18.296;2022-11-15T16:11:40;15.27;;;10.83;;
51810;SDS011;52468;40.116;18.296;2022-11-15T16:14:09;11.17;;;8.53;;
51810;SDS011;52468;40.116;18.296;2022-11-15T16:16:37;10.00;;;8.63;;
51810;SDS011;52468;40.116;18.296;2022-11-15T16:19:06;16.70;;;10.20;;
51810;SDS011;52468;40.116;18.296;2022-11-15T16:21:36;14.33;;;10.60;;
51810;SDS011;52468;40.116;18.296;2022-11-15T16:24:03;16.87;;;12.10;;
51810;SDS011;52468;40.116;18.296;2022-11-15T16:26:31;17.63;;;10.50;;
51810;SDS011;52468;40.116;18.296;2022-11-15T16:29:01;19.60;;;12.00;;
51810;SDS011;52468;40.116;18.296;2022-11-15T16:31:29;23.03;;;14.00;;
51810;SDS011;52468;40.116;18.296;2022-11-15T16:33:57;21.33;;;13.17;;
51810;SDS011;52468;40.116;18.296;2022-11-15T16:36:25;22.60;;;16.97;;
51810;SDS011;52468;40.116;18.296;2022-11-15T16:38:56;19.17;;;12.97;;
51810;SDS011;52468;40.116;18.296;2022-11-15T16:41:25;26.70;;;18.00;;
51810;SDS011;52468;40.116;18.296;2022-11-15T16:43:53;28.43;;;17.40;;
51810;SDS011;52468;40.116;18.296;2022-11-15T16:46:22;24.33;;;17.27;;
51810;SDS011;52468;40.116;18.296;2022-11-15T16:48:51;20.73;;;14.60;;
51810;SDS011;52468;40.116;18.296;2022-11-15T16:51:22;23.50;;;13.73;;
51810;SDS011;52468;40.116;18.296;2022-11-15T16:53:50;21.13;;;16.17;;
51810;SDS011;52468;40.116;18.296;2022-11-15T16:56:24;30.07;;;17.70;;
51810;SDS011;52468;40.116;18.296;2022-11-15T16:58:54;21.97;;;15.03;;
51810;SDS011;52468;40.116;18.296;2022-11-15T17:01:25;24.97;;;14.90;;
51810;SDS011;52468;40.116;18.296;2022-11-15T17:03:58;19.37;;;14.70;;
51810;SDS011;52468;40.116;18.296;2022-11-15T17:06:39;20.10;;;15.37;;
51810;SDS011;52468;40.116;18.296;2022-11-15T17:09:17;23.77;;;15.63;;
51810;SDS011;52468;40.116;18.296;2022-11-15T17:11:46;26.33;;;14.40;;
51810;SDS011;52468;40.116;18.296;2022-11-15T17:14:14;21.53;;;14.40;;
51810;SDS011;52468;40.116;18.296;2022-11-15T17:16:43;18.63;;;13.33;;
51810;SDS011;52468;40.116;18.296;2022-11-15T17:19:14;23.87;;;15.13;;
51810;SDS011;52468;40.116;18.296;2022-11-15T17:24:12;26.50;;;16.37;;
51810;SDS011;52468;40.116;18.296;2022-11-15T17:26:40;24.07;;;15.53;;
51810;SDS011;52468;40.116;18.296;2022-11-15T17:29:09;29.77;;;16.63;;
51810;SDS011;52468;40.116;18.296;2022-11-15T17:31:36;29.17;;;19.53;;
51810;SDS011;52468;40.116;18.296;2022-11-15T17:34:05;35.60;;;23.23;;
51810;SDS011;52468;40.116;18.296;2022-11-15T17:36:33;41.47;;;25.00;;
51810;SDS011;52468;40.116;18.296;2022-11-15T17:39:02;36.17;;;24.33;;
51810;SDS011;52468;40.116;18.296;2022-11-15T17:41:30;37.77;;;22.67;;
51810;SDS011;52468;40.116;18.296;2022-11-15T17:43:58;37.20;;;22.33;;
51810;SDS011;52468;40.116;18.296;2022-11-15T17:46:28;34.47;;;22.90;;
51810;SDS011;52468;40.116;18.296;2022-11-15T17:48:56;39.07;;;24.60;;
51810;SDS011;52468;40.116;18.296;2022-11-15T17:51:24;38.03;;;25.10;;
51810;SDS011;52468;40.116;18.296;2022-11-15T17:53:52;44.67;;;28.00;;
51810;SDS011;52468;40.116;18.296;2022-11-15T17:56:22;46.33;;;28.40;;
51810;SDS011;52468;40.116;18.296;2022-11-15T17:58:52;51.10;;;32.97;;
51810;SDS011;52468;40.116;18.296;2022-11-15T18:01:23;56.27;;;33.20;;